Time;durP1;ratioP1;P1;durP2;ratioP2;P2;SDS_P1;SDS_P2;PMS_P1;PMS_P2;Temp;Humidity;BMP_temperature;BMP_pressure;BME280_temperature;BME280_humidity;BME280_pressure;Samples;Min_cycle;Max_cycle;Signal;HPM_P1;HPM_P2
2022/12/03 13:03:18;;;;;;;43.45;20.90;;;;;;;;;;1771212;78;605544;-67
2022/12/03 13:06:34;;;;;;;48.73;22.15;;;;;;;;;;1796934;77;23076;-68
2022/12/03 13:09:00;;;;;;;60.63;23.05;;;;;;;;;;1752408;81;21488;-68
2022/12/03 13:11:41;;;;;;;46.08;15.90;;;;;;;;;;1752685;81;21560;-66
2022/12/03 13:17:23;;;;;;;62.40;21.95;;;;;;;;;;1908378;74;23386;-63
2022/12/03 13:19:50;;;;;;;34.58;13.65;;;;;;;;;;1858366;77;21559;-62
2022/12/03 13:22:19;;;;;;;72.58;26.93;;;;;;;;;;1858677;77;21558;-63
2022/12/03 13:24:47;;;;;;;92.92;36.77;;;;;;;;;;1857977;76;21537;-63
2022/12/03 13:27:19;;;;;;;103.00;33.38;;;;;;;;;;1858199;76;21562;-62
2022/12/03 13:29:48;;;;;;;83.45;28.15;;;;;;;;;;1858042;76;21530;-62
2022/12/03 13:32:16;;;;;;;;;;;;;;;;;;1860731;76;21713;-63
2022/12/03 13:34:43;;;;;;;57.25;22.45;;;;;;;;;;1857647;76;20458;-62
2022/12/03 13:37:22;;;;;;;25.10;11.25;;;;;;;;;;1857811;77;21589;-62
2022/12/03 13:39:51;;;;;;;89.35;32.28;;;;;;;;;;1857738;76;21586;-62
2022/12/03 13:42:45;;;;;;;132.67;44.48;;;;;;;;;;1857696;77;21509;-63
2022/12/03 13:45:17;;;;;;;97.37;30.50;;;;;;;;;;1856453;76;21567;-63
2022/12/03 13:47:49;;;;;;;150.10;57.55;;;;;;;;;;1857403;76;21550;-63
2022/12/03 13:50:21;;;;;;;74.42;31.60;;;;;;;;;;1857692;75;21543;-63
2022/12/03 13:52:52;;;;;;;99.62;30.12;;;;;;;;;;1854068;76;21494;-63
2022/12/03 13:55:28;;;;;;;101.12;33.23;;;;;;;;;;1854955;77;21503;-63
2022/12/03 13:57:54;;;;;;;126.85;42.53;;;;;;;;;;1841260;77;21534;-63
2022/12/03 14:00:20;;;;;;;55.15;22.55;;;;;;;;;;1858251;75;21593;-62
2022/12/03 14:02:46;;;;;;;70.40;30.27;;;;;;;;;;1857628;77;21574;-63
2022/12/03 14:05:13;;;;;;;65.57;25.72;;;;;;;;;;1858073;76;21538;-64
2022/12/03 14:08:17;;;;;;;88.30;32.25;;;;;;;;;;1857987;77;21020;-63
2022/12/03 14:10:52;;;;;;;53.65;22.77;;;;;;;;;;1857671;76;21697;-62
2022/12/03 14:13:17;;;;;;;82.53;31.48;;;;;;;;;;1857974;76;21512;-62
2022/12/03 14:15:46;;;;;;;43.23;17.80;;;;;;;;;;1854088;76;21583;-62
2022/12/03 14:18:12;;;;;;;45.08;21.57;;;;;;;;;;1844055;77;21574;-62
2022/12/03 14:20:59;;;;;;;48.95;20.68;;;;;;;;;;1842947;77;21628;-62
2022/12/03 14:23:28;;;;;;;55.65;22.62;;;;;;;;;;1844221;77;21546;-63
2022/12/03 14:26:01;;;;;;;54.75;24.23;;;;;;;;;;1844336;76;21512;-61
2022/12/03 14:28:28;;;;;;;45.43;22.10;;;;;;;;;;1843537;76;21624;-63
2022/12/03 14:30:54;;;;;;;55.50;23.62;;;;;;;;;;1843476;76;21645;-64
2022/12/03 14:33:23;;;;;;;74.03;31.65;;;;;;;;;;1843431;77;21495;-64
2022/12/03 14:35:55;;;;;;;51.25;25.55;;;;;;;;;;1843195;76;22311;-63
2022/12/03 14:38:26;;;;;;;57.55;26.23;;;;;;;;;;1843803;76;21519;-64
2022/12/03 14:40:51;;;;;;;39.08;17.52;;;;;;;;;;1843769;76;21025;-63
2022/12/03 14:43:35;;;;;;;39.42;18.05;;;;;;;;;;1843445;77;21053;-64
2022/12/03 14:46:13;;;;;;;39.85;19.62;;;;;;;;;;1843574;77;21519;-63
2022/12/03 14:48:40;;;;;;;46.37;20.92;;;;;;;;;;1843640;77;21512;-64
2022/12/03 14:51:07;;;;;;;38.48;19.23;;;;;;;;;;1843434;77;21538;-64
2022/12/03 14:53:33;;;;;;;79.60;34.27;;;;;;;;;;1843638;77;21559;-64
2022/12/03 14:56:05;;;;;;;62.30;25.62;;;;;;;;;;1842857;77;21155;-63
2022/12/03 14:58:33;;;;;;;190.82;59.27;;;;;;;;;;1830586;77;21566;-65
2022/12/03 15:01:01;;;;;;;111.40;39.25;;;;;;;;;;1841985;76;21578;-63
2022/12/03 15:03:27;;;;;;;88.47;32.23;;;;;;;;;;1843460;77;21491;-63
2022/12/03 15:05:55;;;;;;;229.70;66.65;;;;;;;;;;1843241;77;21524;-63
2022/12/03 15:08:21;;;;;;;;;;;;;;;;;;1844862;76;21540;-63
2022/12/03 15:10:50;;;;;;;51.65;21.42;;;;;;;;;;1843198;77;20411;-64
2022/12/03 15:13:32;;;;;;;85.85;30.62;;;;;;;;;;1843274;76;21491;-64
2022/12/03 15:16:01;;;;;;;110.60;37.30;;;;;;;;;;1798315;77;21667;-64
2022/12/03 15:18:29;;;;;;;77.45;27.77;;;;;;;;;;1843024;76;21614;-63
2022/12/03 15:20:58;;;;;;;85.10;34.20;;;;;;;;;;1843498;76;21550;-63
2022/12/03 15:23:26;;;;;;;114.00;40.05;;;;;;;;;;1831411;77;22069;-63
2022/12/03 15:25:51;;;;;;;108.00;41.83;;;;;;;;;;1843037;76;21124;-63
2022/12/03 15:28:17;;;;;;;76.95;28.83;;;;;;;;;;1843403;77;21550;-63
2022/12/03 15:30:43;;;;;;;86.00;33.18;;;;;;;;;;1842869;77;21496;-63
2022/12/03 15:33:14;;;;;;;94.50;34.65;;;;;;;;;;1843234;77;21599;-63
2022/12/03 15:35:43;;;;;;;62.27;25.27;;;;;;;;;;1843057;77;21543;-63
2022/12/03 15:38:10;;;;;;;59.93;23.10;;;;;;;;;;1843866;76;21566;-63
2022/12/03 15:40:37;;;;;;;46.45;18.02;;;;;;;;;;1843695;77;21578;-63
2022/12/03 15:43:34;;;;;;;59.80;22.95;;;;;;;;;;1843385;76;21571;-62
2022/12/03 15:46:00;;;;;;;42.78;18.67;;;;;;;;;;1843376;76;21016;-61
2022/12/03 15:48:26;;;;;;;38.88;14.98;;;;;;;;;;1842788;77;21567;-63
2022/12/03 15:50:52;;;;;;;67.75;27.62;;;;;;;;;;1843566;76;21526;-62
2022/12/03 15:53:17;;;;;;;79.70;35.78;;;;;;;;;;1843178;77;21577;-62
2022/12/03 15:55:43;;;;;;;146.68;35.10;;;;;;;;;;1843163;77;21016;-61
2022/12/03 15:58:09;;;;;;;123.42;35.83;;;;;;;;;;1843300;76;21028;-62
2022/12/03 16:00:35;;;;;;;90.57;27.93;;;;;;;;;;1842277;76;21056;-62
2022/12/03 16:03:02;;;;;;;50.95;22.90;;;;;;;;;;1843440;77;21103;-63
2022/12/03 16:05:28;;;;;;;77.62;30.92;;;;;;;;;;1843710;76;21513;-62
2022/12/03 16:07:54;;;;;;;48.87;20.02;;;;;;;;;;1843443;76;21533;-61
2022/12/03 16:10:20;;;;;;;61.15;22.48;;;;;;;;;;1843618;76;21444;-62
2022/12/03 16:12:49;;;;;;;108.27;35.50;;;;;;;;;;1843263;76;21079;-63
2022/12/03 16:15:15;;;;;;;101.33;36.15;;;;;;;;;;1843552;76;21559;-62
2022/12/03 16:17:43;;;;;;;103.42;36.63;;;;;;;;;;1842652;77;21574;-64
2022/12/03 16:20:27;;;;;;;60.85;24.20;;;;;;;;;;1842688;77;21631;-62
2022/12/03 16:22:59;;;;;;;64.32;23.60;;;;;;;;;;1842005;77;21555;-62
2022/12/03 16:26:02;;;;;;;62.88;23.22;;;;;;;;;;1843338;76;21643;-62
2022/12/03 16:28:36;;;;;;;115.60;37.35;;;;;;;;;;1843362;77;21535;-64
2022/12/03 16:31:05;;;;;;;95.57;33.78;;;;;;;;;;1843491;77;21614;-62
2022/12/03 16:33:31;;;;;;;47.23;19.17;;;;;;;;;;1843484;76;21559;-62
2022/12/03 16:36:19;;;;;;;61.90;23.87;;;;;;;;;;1843605;77;21618;-62
2022/12/03 16:39:00;;;;;;;70.65;24.82;;;;;;;;;;1831203;77;21551;-64
2022/12/03 16:41:45;;;;;;;55.25;23.20;;;;;;;;;;1842958;77;21640;-62
2022/12/03 16:44:29;;;;;;;39.83;18.32;;;;;;;;;;1843402;77;21595;-63
2022/12/03 16:47:09;;;;;;;51.37;18.60;;;;;;;;;;1845517;76;21009;-62
2022/12/03 16:49:42;;;;;;;77.03;32.35;;;;;;;;;;1831050;77;21652;-62
2022/12/03 16:52:13;;;;;;;52.38;22.10;;;;;;;;;;1843256;76;21580;-63
2022/12/03 16:54:39;;;;;;;45.38;19.75;;;;;;;;;;1842946;76;21638;-62
2022/12/03 16:57:05;;;;;;;62.08;24.85;;;;;;;;;;1843478;77;21607;-62
2022/12/03 16:59:31;;;;;;;61.83;24.67;;;;;;;;;;1843265;77;21076;-63
2022/12/03 17:01:57;;;;;;;38.78;17.20;;;;;;;;;;1843232;76;21040;-62
2022/12/03 17:04:22;;;;;;;72.70;27.48;;;;;;;;;;1843761;77;20985;-62
2022/12/03 17:06:48;;;;;;;46.50;19.12;;;;;;;;;;1843256;77;21541;-63
2022/12/03 17:09:14;;;;;;;71.60;28.23;;;;;;;;;;1843236;77;21531;-63
2022/12/03 17:11:40;;;;;;;58.92;23.50;;;;;;;;;;1843222;77;21558;-63
2022/12/03 17:14:07;;;;;;;64.20;26.75;;;;;;;;;;1843487;77;21570;-62
2022/12/03 17:16:33;;;;;;;61.83;26.35;;;;;;;;;;1845992;76;21543;-63
2022/12/03 17:18:59;;;;;;;50.30;21.20;;;;;;;;;;1857010;76;21613;-62
2022/12/03 17:21:25;;;;;;;79.95;31.15;;;;;;;;;;1856927;76;21598;-64
2022/12/03 17:23:51;;;;;;;118.37;46.25;;;;;;;;;;1856947;77;21352;-63
2022/12/03 17:26:17;;;;;;;51.40;21.85;;;;;;;;;;1857098;75;21515;-62
2022/12/03 17:28:44;;;;;;;51.70;20.15;;;;;;;;;;1856737;77;21622;-63
2022/12/03 17:31:10;;;;;;;76.40;30.75;;;;;;;;;;1857248;76;21870;-63
2022/12/03 17:33:37;;;;;;;50.75;22.15;;;;;;;;;;1857581;77;21559;-63
2022/12/03 17:36:03;;;;;;;68.90;25.43;;;;;;;;;;1857870;75;21582;-62
2022/12/03 17:38:29;;;;;;;80.75;28.70;;;;;;;;;;1857031;77;21451;-63
2022/12/03 17:40:55;;;;;;;91.57;35.08;;;;;;;;;;1856834;76;21506;-63
2022/12/03 17:43:21;;;;;;;69.40;29.77;;;;;;;;;;1857254;76;21538;-63
2022/12/03 17:45:47;;;;;;;63.00;26.70;;;;;;;;;;1857073;76;21074;-64
2022/12/03 17:48:12;;;;;;;72.50;29.72;;;;;;;;;;1857535;77;21394;-62
2022/12/03 17:52:52;;;;;;;53.35;20.52;;;;;;;;;;1763171;77;93423;-63
2022/12/03 17:55:18;;;;;;;52.65;23.67;;;;;;;;;;1716050;82;86129;-63
2022/12/03 17:57:43;;;;;;;56.88;21.33;;;;;;;;;;1729202;82;68246;-65
2022/12/03 18:00:10;;;;;;;54.18;22.13;;;;;;;;;;1653930;84;67470;-63
2022/12/03 18:02:40;;;;;;;48.48;22.20;;;;;;;;;;1648506;86;21657;-64
2022/12/03 18:05:07;;;;;;;53.58;20.65;;;;;;;;;;1577711;85;1561825;-65
2022/12/03 18:07:32;;;;;;;46.42;17.45;;;;;;;;;;1642837;86;21581;-63
2022/12/03 18:09:58;;;;;;;71.60;28.10;;;;;;;;;;1643187;85;21624;-62
2022/12/03 18:12:24;;;;;;;73.28;30.40;;;;;;;;;;1643270;85;21640;-63
2022/12/03 18:14:50;;;;;;;63.45;24.18;;;;;;;;;;1643088;87;21677;-63
2022/12/03 18:17:16;;;;;;;50.30;18.73;;;;;;;;;;1646057;85;187363;-63
2022/12/03 18:19:42;;;;;;;48.17;22.02;;;;;;;;;;1680527;85;21646;-64
2022/12/03 18:22:08;;;;;;;36.10;15.32;;;;;;;;;;1653818;85;63657;-63
2022/12/03 18:24:34;;;;;;;40.70;17.92;;;;;;;;;;1656341;86;21703;-63
2022/12/03 18:27:00;;;;;;;56.53;25.50;;;;;;;;;;1634634;87;21081;-64
2022/12/03 18:29:26;;;;;;;52.27;24.92;;;;;;;;;;1661629;86;21611;-64
2022/12/03 18:31:52;;;;;;;44.63;19.62;;;;;;;;;;1630057;87;21576;-65
2022/12/03 18:34:17;;;;;;;40.73;18.80;;;;;;;;;;1648848;86;21553;-62
2022/12/03 18:36:44;;;;;;;43.25;21.27;;;;;;;;;;1634716;87;21471;-62
2022/12/03 18:39:13;;;;;;;39.48;18.35;;;;;;;;;;1662061;85;21137;-63
2022/12/03 18:41:39;;;;;;;36.83;17.82;;;;;;;;;;1634268;87;21666;-63
2022/12/03 18:44:07;;;;;;;37.17;17.55;;;;;;;;;;1660311;86;21592;-63
2022/12/03 18:46:33;;;;;;;41.50;17.32;;;;;;;;;;1635328;87;21658;-63
2022/12/03 18:48:59;;;;;;;37.67;16.17;;;;;;;;;;1661879;86;21584;-63
2022/12/03 18:51:27;;;;;;;37.70;17.32;;;;;;;;;;1625188;87;21138;-63
2022/12/03 18:53:53;;;;;;;40.58;18.50;;;;;;;;;;1620510;87;21661;-64
2022/12/03 18:56:19;;;;;;;27.95;11.95;;;;;;;;;;1621345;88;21385;-63
2022/12/03 18:58:45;;;;;;;39.05;15.18;;;;;;;;;;1647373;86;21165;-62
2022/12/03 19:01:16;;;;;;;76.45;28.57;;;;;;;;;;1613822;88;21561;-62
2022/12/03 19:03:42;;;;;;;41.85;17.70;;;;;;;;;;1620258;88;21545;-63
2022/12/03 19:06:13;;;;;;;28.92;12.47;;;;;;;;;;1620162;88;21612;-62
2022/12/03 19:08:39;;;;;;;62.88;23.25;;;;;;;;;;1646661;86;21090;-62
2022/12/03 19:11:06;;;;;;;188.18;56.28;;;;;;;;;;1620127;86;21116;-63
2022/12/03 19:13:32;;;;;;;60.88;23.32;;;;;;;;;;1620284;87;21575;-63
2022/12/03 19:16:03;;;;;;;76.77;28.75;;;;;;;;;;1647100;86;21736;-63
2022/12/03 19:18:28;;;;;;;50.73;21.48;;;;;;;;;;1612913;88;21550;-64
2022/12/03 19:20:54;;;;;;;97.10;32.42;;;;;;;;;;1620047;87;21051;-63
2022/12/03 19:23:20;;;;;;;60.40;24.35;;;;;;;;;;1620230;87;21518;-62
2022/12/03 19:25:58;;;;;;;66.92;27.07;;;;;;;;;;1646403;86;21686;-63
2022/12/03 19:28:24;;;;;;;41.90;17.42;;;;;;;;;;1629927;84;65182;-64
2022/12/03 19:31:02;;;;;;;70.28;25.15;;;;;;;;;;1661135;85;21897;-63
2022/12/03 19:33:29;;;;;;;51.18;16.62;;;;;;;;;;1653091;86;21607;-63
2022/12/03 19:35:56;;;;;;;44.08;16.32;;;;;;;;;;1650169;86;21606;-62
2022/12/03 19:38:23;;;;;;;50.65;21.10;;;;;;;;;;1623799;87;65520;-64
2022/12/03 19:41:05;;;;;;;44.85;18.27;;;;;;;;;;1675965;85;21687;-63
2022/12/03 19:43:32;;;;;;;50.63;14.07;;;;;;;;;;1676673;85;21595;-63
2022/12/03 19:46:07;;;;;;;51.37;21.75;;;;;;;;;;1653055;86;21226;-63
2022/12/03 19:48:34;;;;;;;61.25;20.82;;;;;;;;;;1664334;85;21615;-63
2022/12/03 19:51:01;;;;;;;41.40;19.15;;;;;;;;;;1652828;86;21589;-63
2022/12/03 19:53:28;;;;;;;36.65;16.30;;;;;;;;;;1664412;85;21584;-64
2022/12/03 19:55:54;;;;;;;56.00;23.15;;;;;;;;;;1652878;86;21561;-64
2022/12/03 19:58:21;;;;;;;53.65;22.37;;;;;;;;;;1664457;86;21609;-63
2022/12/03 20:00:46;;;;;;;46.68;19.30;;;;;;;;;;1652816;86;21152;-64
2022/12/03 20:03:12;;;;;;;101.70;33.55;;;;;;;;;;1664672;86;21087;-64
2022/12/03 20:05:39;;;;;;;54.38;22.50;;;;;;;;;;1664351;86;21637;-64
2022/12/03 20:08:06;;;;;;;88.55;30.48;;;;;;;;;;1664448;85;21624;-63
2022/12/03 20:10:33;;;;;;;46.70;16.17;;;;;;;;;;1652920;86;21609;-63
2022/12/03 20:12:59;;;;;;;79.22;24.65;;;;;;;;;;1664848;85;21156;-64
2022/12/03 20:15:25;;;;;;;76.40;22.80;;;;;;;;;;1653180;86;21529;-63
2022/12/03 20:17:52;;;;;;;66.82;24.07;;;;;;;;;;1664570;86;21671;-63
2022/12/03 20:20:18;;;;;;;44.00;17.17;;;;;;;;;;1652974;86;21593;-64
2022/12/03 20:22:44;;;;;;;94.92;29.18;;;;;;;;;;1664699;85;21697;-64
2022/12/03 20:25:10;;;;;;;57.05;17.80;;;;;;;;;;1652911;86;21588;-63
2022/12/03 20:27:36;;;;;;;49.08;18.85;;;;;;;;;;1664619;86;21611;-64
2022/12/03 20:30:03;;;;;;;25.15;12.33;;;;;;;;;;1652869;86;21681;-63
2022/12/03 20:32:29;;;;;;;30.72;14.28;;;;;;;;;;1664357;85;21601;-63
2022/12/03 20:34:55;;;;;;;33.55;14.33;;;;;;;;;;1652826;86;21615;-63
2022/12/03 20:37:21;;;;;;;48.17;19.85;;;;;;;;;;1664489;85;21142;-64
2022/12/03 20:39:50;;;;;;;40.60;16.10;;;;;;;;;;1652941;86;21664;-63
2022/12/03 20:42:16;;;;;;;38.40;16.65;;;;;;;;;;1665150;86;21568;-64
2022/12/03 20:44:41;;;;;;;43.38;18.12;;;;;;;;;;1653224;86;21616;-64
2022/12/03 20:47:07;;;;;;;42.20;18.62;;;;;;;;;;1664704;86;21560;-64
2022/12/03 20:49:34;;;;;;;51.70;19.77;;;;;;;;;;1653003;86;21944;-63
2022/12/03 20:51:59;;;;;;;45.63;19.05;;;;;;;;;;1664068;84;21679;-63
2022/12/03 20:54:25;;;;;;;45.65;21.95;;;;;;;;;;1652798;86;21585;-64
2022/12/03 20:56:51;;;;;;;48.23;22.17;;;;;;;;;;1665261;86;21112;-63
2022/12/03 20:59:17;;;;;;;241.60;75.95;;;;;;;;;;1653208;86;21501;-62
2022/12/03 21:01:44;;;;;;;212.80;56.42;;;;;;;;;;1664272;85;21762;-63
2022/12/03 21:04:14;;;;;;;116.05;34.73;;;;;;;;;;1664336;86;21534;-63
2022/12/03 21:06:41;;;;;;;85.62;27.15;;;;;;;;;;1664181;85;21751;-64
2022/12/03 21:09:08;;;;;;;52.98;19.05;;;;;;;;;;1652886;86;21100;-63
2022/12/03 21:11:37;;;;;;;59.25;21.27;;;;;;;;;;1664623;86;21837;-63
2022/12/03 21:14:03;;;;;;;57.30;21.82;;;;;;;;;;1653012;86;21589;-63
2022/12/03 21:16:32;;;;;;;44.90;16.05;;;;;;;;;;1664420;85;21541;-63
2022/12/03 21:19:01;;;;;;;62.08;19.77;;;;;;;;;;1652826;86;21645;-63
2022/12/03 21:21:29;;;;;;;40.92;17.52;;;;;;;;;;1664270;85;21600;-63
2022/12/03 21:23:56;;;;;;;51.15;17.25;;;;;;;;;;1652840;86;21584;-63
2022/12/03 21:26:22;;;;;;;35.30;15.00;;;;;;;;;;1664739;86;21497;-64
2022/12/03 21:28:50;;;;;;;105.17;31.82;;;;;;;;;;1652776;86;21641;-63
2022/12/03 21:31:18;;;;;;;66.22;21.00;;;;;;;;;;1664397;85;21105;-63
2022/12/03 21:33:46;;;;;;;64.95;21.70;;;;;;;;;;1652531;86;21125;-63
2022/12/03 21:36:14;;;;;;;62.17;21.33;;;;;;;;;;1665055;86;21117;-63
2022/12/03 21:38:41;;;;;;;54.63;20.17;;;;;;;;;;1652884;86;21895;-63
2022/12/03 21:41:07;;;;;;;46.30;18.05;;;;;;;;;;1664889;85;21603;-63
2022/12/03 21:43:33;;;;;;;56.20;23.18;;;;;;;;;;1652845;86;21557;-63
2022/12/03 21:46:01;;;;;;;74.67;25.50;;;;;;;;;;1664256;85;21607;-65
2022/12/03 21:48:27;;;;;;;35.25;14.65;;;;;;;;;;1652839;86;21442;-63
2022/12/03 21:51:02;;;;;;;48.80;15.98;;;;;;;;;;1664333;85;21149;-63
2022/12/03 21:53:29;;;;;;;39.42;15.90;;;;;;;;;;1652787;85;21645;-64
2022/12/03 21:55:55;;;;;;;30.20;13.72;;;;;;;;;;1641694;87;21621;-63
2022/12/03 21:58:21;;;;;;;37.70;14.33;;;;;;;;;;1652943;86;21566;-64
2022/12/03 22:00:46;;;;;;;50.25;21.65;;;;;;;;;;1641879;87;21585;-63
2022/12/03 22:03:12;;;;;;;34.85;14.47;;;;;;;;;;1653048;86;21624;-64
2022/12/03 22:05:38;;;;;;;31.42;12.23;;;;;;;;;;1641343;86;21700;-64
2022/12/03 22:08:04;;;;;;;45.67;20.90;;;;;;;;;;1653099;86;21213;-64
2022/12/03 22:10:30;;;;;;;49.42;20.85;;;;;;;;;;1642078;86;21519;-63
2022/12/03 22:12:56;;;;;;;40.88;18.00;;;;;;;;;;1652778;86;21584;-63
2022/12/03 22:15:22;;;;;;;47.50;17.73;;;;;;;;;;1641657;87;21094;-63
2022/12/03 22:17:47;;;;;;;40.43;20.48;;;;;;;;;;1652629;86;21585;-63
2022/12/03 22:20:14;;;;;;;41.05;18.07;;;;;;;;;;1641628;87;21106;-64
2022/12/03 22:22:39;;;;;;;37.88;16.12;;;;;;;;;;1652841;86;21628;-63
2022/12/03 22:25:06;;;;;;;56.70;25.35;;;;;;;;;;1641826;87;21569;-65
2022/12/03 22:27:32;;;;;;;36.20;15.85;;;;;;;;;;1652893;86;21596;-64
2022/12/03 22:29:58;;;;;;;29.80;14.85;;;;;;;;;;1641456;87;21588;-63
2022/12/03 22:32:24;;;;;;;41.88;18.55;;;;;;;;;;1653839;86;21672;-64
2022/12/03 22:34:50;;;;;;;23.80;10.60;;;;;;;;;;1641949;87;21602;-65
2022/12/03 22:37:16;;;;;;;35.65;15.00;;;;;;;;;;1652782;86;21644;-63
